Time;durP1;ratioP1;P1;durP2;ratioP2;P2;SDS_P1;SDS_P2;PMS_P1;PMS_P2;Temp;Humidity;BMP_temperature;BMP_pressure;BME280_temperature;BME280_humidity;BME280_pressure;Samples;Min_cycle;Max_cycle;Signal;HPM_P1;HPM_P2
2022/02/28 16:34:58;;;;;;;3.30;2.50;;;15.60;36.50;;;;;;5034132;27;21504;-73
2022/02/28 16:37:25;;;;;;;6.23;3.67;;;15.10;37.70;;;;;;5026904;28;20586;-73
2022/02/28 16:39:52;;;;;;;2.93;2.30;;;14.80;38.40;;;;;;5019447;28;20478;-73
2022/02/28 16:42:19;;;;;;;7.67;4.50;;;14.60;38.60;;;;;;5024226;28;20467;-73
2022/02/28 16:44:47;;;;;;;3.37;3.07;;;14.60;38.20;;;;;;5021019;28;20571;-71
2022/02/28 16:47:14;;;;;;;7.90;2.70;;;14.50;38.20;;;;;;5024330;28;20491;-71
2022/02/28 16:49:41;;;;;;;5.30;3.50;;;14.40;38.00;;;;;;5024769;28;20460;-71
2022/02/28 16:52:10;;;;;;;4.97;2.97;;;14.30;37.80;;;;;;5015752;28;20460;-71
2022/02/28 16:54:36;;;;;;;6.10;4.60;;;14.30;38.00;;;;;;5014686;28;20549;-72
2022/02/28 16:57:04;;;;;;;8.40;4.10;;;14.30;37.20;;;;;;5012077;28;20479;-71
2022/02/28 16:59:30;;;;;;;7.47;3.30;;;14.40;37.50;;;;;;5015196;28;20835;-72
2022/02/28 17:01:57;;;;;;;7.43;3.80;;;14.20;39.10;;;;;;5016122;28;20567;-71
2022/02/28 17:04:24;;;;;;;4.90;3.80;;;14.00;38.90;;;;;;5011918;28;20488;-71
2022/02/28 17:06:50;;;;;;;4.63;3.13;;;14.00;38.60;;;;;;5017887;28;20586;-71
2022/02/28 17:09:18;;;;;;;8.37;3.50;;;13.90;38.80;;;;;;5013993;28;20550;-71
2022/02/28 17:14:14;;;;;;;8.13;3.80;;;13.70;41.40;;;;;;4969132;28;20486;-70
2022/02/28 17:16:40;;;;;;;8.73;4.77;;;13.50;42.30;;;;;;4975415;28;20504;-71
2022/02/28 17:19:07;;;;;;;4.87;3.50;;;13.30;42.20;;;;;;4978422;28;20492;-70
2022/02/28 17:21:34;;;;;;;7.50;3.33;;;12.90;41.40;;;;;;4982131;28;20465;-70
2022/02/28 17:24:01;;;;;;;13.70;4.07;;;12.80;40.80;;;;;;4962169;28;20458;-69
2022/02/28 17:26:29;;;;;;;6.80;3.27;;;12.80;40.70;;;;;;4966891;28;20549;-70
2022/02/28 17:28:56;;;;;;;10.93;3.67;;;12.80;41.30;;;;;;4966910;28;20461;-71
2022/02/28 17:31:23;;;;;;;18.87;6.23;;;12.70;43.30;;;;;;4966057;28;20561;-70
2022/02/28 17:33:50;;;;;;;12.40;4.03;;;12.60;43.80;;;;;;4963310;28;20502;-71
2022/02/28 17:36:16;;;;;;;29.17;8.17;;;12.40;43.60;;;;;;4964388;28;21186;-71
2022/02/28 17:38:44;;;;;;;7.83;3.80;;;12.20;44.20;;;;;;4955308;28;20437;-71
2022/02/28 17:41:11;;;;;;;5.33;3.50;;;12.10;44.20;;;;;;4967622;28;20577;-71
2022/02/28 17:43:44;;;;;;;8.10;4.80;;;12.10;44.20;;;;;;4962647;28;20514;-71
2022/02/28 17:46:11;;;;;;;3.30;3.00;;;11.90;45.40;;;;;;4951265;28;20491;-69
2022/02/28 17:48:38;;;;;;;6.13;4.33;;;11.80;45.80;;;;;;4955517;28;20557;-70
2022/02/28 17:51:08;;;;;;;4.33;3.97;;;11.70;46.00;;;;;;4947108;28;20466;-70
2022/02/28 17:53:35;;;;;;;5.20;3.20;;;11.50;46.50;;;;;;4952560;28;21216;-70
2022/02/28 17:56:02;;;;;;;4.60;2.90;;;11.50;46.60;;;;;;4952339;28;20972;-71
2022/02/28 17:58:28;;;;;;;32.60;13.47;;;11.40;46.70;;;;;;4954687;28;20459;-71
2022/02/28 18:00:57;;;;;;;14.33;7.47;;;11.30;47.50;;;;;;4948928;28;20489;-70
2022/02/28 18:03:23;;;;;;;5.47;4.73;;;11.10;46.60;;;;;;4952539;28;20509;-71
2022/02/28 18:05:50;;;;;;;12.50;3.20;;;11.20;47.10;;;;;;4951448;28;20538;-72
2022/02/28 18:08:17;;;;;;;3.00;2.60;;;11.20;47.10;;;;;;4953768;28;20474;-71
2022/02/28 18:10:44;;;;;;;5.17;3.50;;;11.10;47.50;;;;;;4952620;28;20490;-72
2022/02/28 18:13:10;;;;;;;7.50;3.03;;;11.00;47.20;;;;;;4950267;28;20541;-72
2022/02/28 18:15:37;;;;;;;7.07;2.77;;;10.90;46.00;;;;;;4952667;28;20551;-72
2022/02/28 18:18:06;;;;;;;5.07;2.83;;;10.80;47.70;;;;;;4949320;28;20525;-74
2022/02/28 18:20:32;;;;;;;26.43;8.30;;;10.60;48.80;;;;;;4948025;28;21560;-72
2022/02/28 18:22:59;;;;;;;14.33;6.10;;;10.40;48.90;;;;;;4953915;28;20615;-70
2022/02/28 18:25:26;;;;;;;6.10;3.53;;;10.40;48.80;;;;;;4955865;28;20554;-71
2022/02/28 18:27:52;;;;;;;7.57;3.80;;;10.60;49.90;;;;;;4949878;28;20597;-70
2022/02/28 18:30:19;;;;;;;5.63;3.67;;;10.50;50.30;;;;;;4954973;28;20498;-70
2022/02/28 18:32:48;;;;;;;3.10;2.53;;;10.40;50.60;;;;;;4953505;28;20493;-71
2022/02/28 18:35:20;;;;;;;2.80;2.57;;;10.30;49.80;;;;;;4947041;28;20992;-71
2022/02/28 18:37:47;;;;;;;6.97;3.70;;;10.10;48.30;;;;;;4950362;28;20538;-70
2022/02/28 18:40:15;;;;;;;5.10;3.23;;;10.10;49.20;;;;;;4952256;28;21362;-70
2022/02/28 18:42:42;;;;;;;4.90;3.03;;;9.90;51.40;;;;;;4952939;28;20585;-70
2022/02/28 18:45:10;;;;;;;14.93;3.60;;;9.80;52.50;;;;;;4951510;28;20553;-69
2022/02/28 18:47:37;;;;;;;6.20;3.40;;;9.70;53.40;;;;;;4952192;28;20449;-70
2022/02/28 18:50:05;;;;;;;6.80;3.40;;;9.60;53.50;;;;;;4953326;28;20445;-69
2022/02/28 18:52:33;;;;;;;4.63;2.90;;;9.50;54.60;;;;;;4951334;28;20507;-71
2022/02/28 18:55:00;;;;;;;6.33;2.83;;;9.30;53.50;;;;;;4952609;28;20588;-70
2022/02/28 18:57:27;;;;;;;8.47;3.67;;;9.20;51.90;;;;;;4949931;28;20754;-70
2022/02/28 18:59:54;;;;;;;3.90;3.40;;;9.10;51.90;;;;;;4947232;28;20470;-71
2022/02/28 19:02:21;;;;;;;5.50;3.30;;;9.20;52.40;;;;;;4951809;28;20484;-70
2022/02/28 19:04:48;;;;;;;4.93;3.77;;;9.10;53.50;;;;;;4946004;28;20581;-70
2022/02/28 19:07:16;;;;;;;4.17;2.90;;;9.00;54.00;;;;;;4941835;28;20500;-71
2022/02/28 19:09:44;;;;;;;9.30;4.30;;;8.90;55.00;;;;;;4951361;28;20456;-74
2022/02/28 19:12:13;;;;;;;3.83;3.03;;;8.70;56.50;;;;;;4954062;28;20468;-69
2022/02/28 19:14:39;;;;;;;5.63;2.80;;;8.70;57.90;;;;;;4954041;28;20467;-70
2022/02/28 19:17:06;;;;;;;4.70;3.23;;;8.60;58.40;;;;;;4950275;28;20471;-70
2022/02/28 19:19:33;;;;;;;10.33;4.53;;;8.60;59.90;;;;;;4954802;28;20539;-70
2022/02/28 19:22:00;;;;;;;14.87;4.10;;;8.60;62.10;;;;;;4957396;28;20606;-70
2022/02/28 19:24:27;;;;;;;7.40;4.00;;;8.60;65.00;;;;;;4955816;28;20536;-72
2022/02/28 19:26:55;;;;;;;5.57;3.40;;;8.50;65.30;;;;;;4957604;28;21148;-72
2022/02/28 19:29:22;;;;;;;4.47;3.03;;;8.30;67.90;;;;;;4956790;28;20466;-70
2022/02/28 19:31:49;;;;;;;6.00;4.63;;;8.20;68.00;;;;;;4956201;28;20463;-70
2022/02/28 19:34:16;;;;;;;7.60;4.30;;;8.10;69.70;;;;;;4957359;28;20516;-70
2022/02/28 19:36:43;;;;;;;4.30;3.80;;;8.10;70.70;;;;;;4955788;28;20470;-70
2022/02/28 19:39:10;;;;;;;4.30;3.70;;;8.00;71.10;;;;;;4957071;28;20458;-70
2022/02/28 19:41:36;;;;;;;3.20;2.70;;;7.80;70.10;;;;;;4955575;28;20478;-70
2022/02/28 19:44:05;;;;;;;3.53;2.57;;;7.60;70.20;;;;;;4958321;28;20453;-71
2022/02/28 19:46:31;;;;;;;6.43;3.57;;;7.50;71.30;;;;;;4956185;28;20446;-72
2022/02/28 19:48:58;;;;;;;2.97;2.77;;;7.40;73.00;;;;;;4957913;28;20467;-71
2022/02/28 19:51:25;;;;;;;2.83;2.40;;;7.40;77.60;;;;;;4954822;28;20529;-71
2022/02/28 19:53:52;;;;;;;7.00;3.00;;;7.50;79.40;;;;;;4957546;28;20462;-71
2022/02/28 19:56:19;;;;;;;7.43;2.80;;;7.40;79.10;;;;;;4956863;28;20468;-72
2022/02/28 19:58:45;;;;;;;4.63;3.57;;;7.30;77.80;;;;;;4956334;28;20500;-71
2022/02/28 20:01:13;;;;;;;6.50;2.70;;;7.20;78.50;;;;;;4956780;28;20536;-71
2022/02/28 20:03:40;;;;;;;6.47;3.40;;;7.00;80.10;;;;;;4958349;28;20864;-71
2022/02/28 20:06:08;;;;;;;4.13;2.90;;;6.80;83.70;;;;;;4955936;28;20437;-72
2022/02/28 20:08:34;;;;;;;3.63;2.87;;;6.80;86.80;;;;;;4958395;28;20856;-70
2022/02/28 20:11:01;;;;;;;7.40;3.40;;;6.80;88.40;;;;;;4956867;28;20469;-71
2022/02/28 20:13:28;;;;;;;5.20;3.23;;;6.90;90.30;;;;;;4956068;28;20565;-69
2022/02/28 20:15:56;;;;;;;8.00;3.80;;;7.00;91.20;;;;;;4957523;28;21288;-70
2022/02/28 20:18:26;;;;;;;6.90;3.30;;;7.00;92.30;;;;;;4948132;28;20437;-70
2022/02/28 20:20:54;;;;;;;2.70;2.10;;;7.00;93.00;;;;;;4948553;28;20585;-73
2022/02/28 20:23:21;;;;;;;5.60;2.40;;;6.90;92.40;;;;;;4949248;28;20486;-70
2022/02/28 20:25:49;;;;;;;7.10;3.00;;;6.80;93.30;;;;;;4953191;28;20441;-70
2022/02/28 20:28:17;;;;;;;4.53;2.90;;;6.70;94.00;;;;;;4956129;28;20565;-71
2022/02/28 20:30:43;;;;;;;4.53;3.03;;;6.70;94.90;;;;;;4957038;28;20580;-70
2022/02/28 20:33:11;;;;;;;5.30;3.77;;;6.70;95.00;;;;;;4956658;28;20527;-69
2022/02/28 20:35:39;;;;;;;6.67;4.57;;;6.60;95.70;;;;;;4956474;28;20454;-72
2022/02/28 20:38:06;;;;;;;7.37;5.20;;;6.50;95.90;;;;;;4957819;28;20446;-71
2022/02/28 20:40:33;;;;;;;6.43;4.10;;;6.60;96.60;;;;;;4956647;28;21754;-71
2022/02/28 20:43:00;;;;;;;6.43;3.47;;;6.70;97.40;;;;;;4956038;28;20546;-71
2022/02/28 20:45:27;;;;;;;10.80;5.20;;;6.60;98.50;;;;;;4957956;28;20463;-71
2022/02/28 20:47:54;;;;;;;3.37;2.97;;;6.30;99.50;;;;;;4956765;28;22584;-70
2022/02/28 20:50:20;;;;;;;10.93;3.23;;;6.10;99.90;;;;;;4953953;28;20851;-69
2022/02/28 20:52:49;;;;;;;4.57;2.70;;;5.90;99.90;;;;;;4953913;28;20482;-70
2022/02/28 20:55:16;;;;;;;4.63;3.10;;;5.70;99.90;;;;;;4953917;28;20486;-70
2022/02/28 20:57:44;;;;;;;7.00;3.90;;;5.70;99.90;;;;;;4952387;28;20438;-69
2022/02/28 21:00:12;;;;;;;9.33;3.03;;;5.90;99.90;;;;;;4953652;28;20549;-71
2022/02/28 21:02:39;;;;;;;3.97;3.53;;;6.00;99.90;;;;;;4950640;28;21140;-70
2022/02/28 21:05:07;;;;;;;3.70;3.20;;;6.00;99.90;;;;;;4945280;28;20438;-70
2022/02/28 21:07:34;;;;;;;3.73;2.40;;;6.10;99.90;;;;;;4948609;28;20503;-71
2022/02/28 21:10:02;;;;;;;5.23;3.30;;;6.10;99.90;;;;;;4955107;28;21197;-71
2022/02/28 21:12:29;;;;;;;7.37;3.13;;;5.90;99.90;;;;;;4949033;28;20846;-71
2022/02/28 21:14:59;;;;;;;4.17;3.00;;;5.90;99.90;;;;;;4946807;28;20473;-72
2022/02/28 21:17:26;;;;;;;4.83;4.27;;;5.90;99.90;;;;;;4946413;28;20905;-71
2022/02/28 21:19:55;;;;;;;4.80;3.47;;;5.90;99.90;;;;;;4946820;28;20466;-71
2022/02/28 21:22:21;;;;;;;7.57;4.80;;;5.90;99.90;;;;;;4948956;28;20490;-71
2022/02/28 21:24:48;;;;;;;6.07;3.17;;;5.90;99.90;;;;;;4956655;28;22399;-71
2022/02/28 21:27:16;;;;;;;5.37;4.50;;;5.80;99.90;;;;;;4956628;28;20469;-71
2022/02/28 21:29:43;;;;;;;7.07;3.67;;;5.80;99.90;;;;;;4953899;28;21007;-70
2022/02/28 21:32:10;;;;;;;5.77;3.67;;;5.80;99.90;;;;;;4956403;28;20830;-71
2022/02/28 21:34:36;;;;;;;4.93;4.20;;;5.70;99.90;;;;;;4955427;28;20539;-71
2022/02/28 21:37:03;;;;;;;8.50;4.83;;;5.70;99.90;;;;;;4953899;28;20491;-71
2022/02/28 21:39:30;;;;;;;7.17;2.83;;;5.70;99.90;;;;;;4955412;28;20488;-70
2022/02/28 21:41:57;;;;;;;8.73;3.90;;;5.70;99.90;;;;;;4954705;28;20461;-70
2022/02/28 21:44:27;;;;;;;7.83;2.87;;;5.60;99.90;;;;;;4953139;28;20486;-71
2022/02/28 21:46:54;;;;;;;5.23;3.00;;;5.60;99.90;;;;;;4952740;28;20444;-71
2022/02/28 21:49:21;;;;;;;4.20;3.43;;;5.50;99.90;;;;;;4951273;28;20502;-70
2022/02/28 21:51:48;;;;;;;4.50;3.10;;;5.50;99.90;;;;;;4956555;28;20442;-71
2022/02/28 21:54:15;;;;;;;8.50;3.83;;;5.40;99.90;;;;;;4952012;28;20537;-72
2022/02/28 21:56:41;;;;;;;8.53;3.70;;;5.60;99.90;;;;;;4952597;28;20718;-71
2022/02/28 21:59:08;;;;;;;3.53;2.73;;;5.50;99.90;;;;;;4947976;28;21099;-70
2022/02/28 22:01:36;;;;;;;11.97;3.87;;;5.40;99.90;;;;;;4950796;28;20457;-72
2022/02/28 22:04:03;;;;;;;6.27;4.13;;;5.50;99.90;;;;;;4951979;28;20782;-70
2022/02/28 22:06:29;;;;;;;8.07;3.90;;;5.40;99.90;;;;;;4950753;28;20441;-71
2022/02/28 22:08:56;;;;;;;15.03;5.50;;;5.40;99.90;;;;;;4953915;28;20522;-71
2022/02/28 22:11:23;;;;;;;10.07;4.60;;;5.30;99.90;;;;;;4946435;28;20512;-70
2022/02/28 22:13:50;;;;;;;10.63;5.97;;;5.40;99.90;;;;;;4952636;28;20592;-70
2022/02/28 22:16:16;;;;;;;11.17;4.63;;;5.40;99.90;;;;;;4950070;28;20814;-70
2022/02/28 22:18:46;;;;;;;7.50;4.50;;;5.30;99.90;;;;;;4946125;28;20659;-71
2022/02/28 22:21:13;;;;;;;7.90;4.00;;;5.20;99.90;;;;;;4945311;28;20505;-71
2022/02/28 22:23:40;;;;;;;3.97;2.10;;;5.10;99.90;;;;;;4952894;28;20458;-71
2022/02/28 22:26:07;;;;;;;8.23;4.70;;;5.00;99.90;;;;;;4948600;28;20434;-71
2022/02/28 22:28:34;;;;;;;5.67;4.00;;;5.00;99.90;;;;;;4951638;28;20450;-70
2022/02/28 22:31:00;;;;;;;11.60;4.80;;;4.90;99.90;;;;;;4952452;28;20461;-70
2022/02/28 22:33:27;;;;;;;8.77;4.23;;;4.80;99.90;;;;;;4955072;28;20482;-71
2022/02/28 22:35:55;;;;;;;8.03;3.93;;;4.70;99.90;;;;;;4952358;28;20461;-71
2022/02/28 22:38:22;;;;;;;4.50;2.57;;;4.40;99.90;;;;;;4958781;28;20442;-71
2022/02/28 22:40:48;;;;;;;15.07;4.97;;;4.30;99.90;;;;;;4955685;28;20920;-70
2022/02/28 22:43:15;;;;;;;4.00;2.93;;;4.40;99.90;;;;;;4951374;28;20535;-71
2022/02/28 22:45:42;;;;;;;6.77;3.60;;;4.50;99.90;;;;;;4953044;28;20434;-70
2022/02/28 22:48:10;;;;;;;6.97;4.00;;;4.40;99.90;;;;;;4953370;28;20902;-70
2022/02/28 22:50:37;;;;;;;7.20;3.70;;;4.40;99.90;;;;;;4949709;28;20445;-72
2022/02/28 22:53:05;;;;;;;10.13;5.17;;;4.30;99.90;;;;;;4948391;28;20487;-70
2022/02/28 22:55:32;;;;;;;5.37;3.30;;;4.30;99.90;;;;;;4946795;28;20483;-71
2022/02/28 22:58:00;;;;;;;5.70;3.57;;;4.40;99.90;;;;;;4952987;28;20468;-70
2022/02/28 23:01:08;;;;;;;6.53;3.70;;;4.40;99.90;;;;;;4953577;28;20831;-70
2022/02/28 23:06:19;;;;;;;9.60;4.57;;;4.30;99.90;;;;;;4951741;28;20553;-69
2022/02/28 23:19:44;;;;;;;5.50;3.67;;;4.10;99.90;;;;;;4958825;28;20436;-67
2022/02/28 23:22:11;;;;;;;12.40;3.60;;;4.10;99.90;;;;;;4957255;28;20491;-69
2022/02/28 23:24:39;;;;;;;5.33;3.60;;;4.00;99.90;;;;;;4956353;28;20447;-69
2022/02/28 23:27:06;;;;;;;7.53;3.97;;;4.10;99.90;;;;;;4974876;28;20528;-69
2022/02/28 23:29:36;;;;;;;3.43;3.13;;;4.10;99.90;;;;;;4972184;28;20551;-68
2022/02/28 23:32:03;;;;;;;14.70;6.50;;;4.00;99.90;;;;;;4978353;28;20447;-70
2022/02/28 23:34:29;;;;;;;7.30;4.53;;;3.90;99.90;;;;;;4977616;28;20553;-69
2022/02/28 23:36:56;;;;;;;4.93;4.47;;;3.80;99.90;;;;;;4976790;28;20578;-69
2022/02/28 23:39:24;;;;;;;7.00;4.57;;;3.80;99.90;;;;;;4977620;28;21194;-67
2022/02/28 23:41:52;;;;;;;6.43;4.73;;;3.80;99.90;;;;;;4972436;28;20465;-68
2022/02/28 23:44:19;;;;;;;3.53;2.80;;;3.80;99.90;;;;;;4976072;28;20464;-69
2022/02/28 23:46:45;;;;;;;6.73;3.40;;;3.80;99.90;;;;;;4977004;28;20456;-69
2022/02/28 23:49:12;;;;;;;9.83;4.17;;;3.80;99.90;;;;;;4974414;28;20500;-68
2022/02/28 23:51:39;;;;;;;6.50;3.70;;;3.60;99.90;;;;;;4975612;28;20496;-68
2022/02/28 23:54:06;;;;;;;6.93;3.70;;;3.70;99.90;;;;;;4975179;28;20457;-69
2022/02/28 23:56:32;;;;;;;9.43;5.60;;;3.70;99.90;;;;;;4976395;28;20584;-68
2022/02/28 23:59:00;;;;;;;5.27;3.60;;;3.80;99.90;;;;;;4971397;28;21572;-69
